Time;durP1;ratioP1;P1;durP2;ratioP2;P2;SDS_P1;SDS_P2;PMS_P1;PMS_P2;Temp;Humidity;BMP_temperature;BMP_pressure;BME280_temperature;BME280_humidity;BME280_pressure;Samples;Min_cycle;Max_cycle;Signal;HPM_P1;HPM_P2
2024/01/18 00:00:14;;;;;;;3.15;2.95;;;15.30;61.60;;;;;;5019771;28;20136;-77
2024/01/18 00:02:40;;;;;;;3.08;2.88;;;15.20;61.60;;;;;;4996938;28;20061;-76
2024/01/18 00:05:07;;;;;;;3.13;2.92;;;15.20;61.70;;;;;;5022582;28;20124;-77
2024/01/18 00:07:32;;;;;;;3.00;2.80;;;15.20;61.70;;;;;;5005747;28;20116;-77
2024/01/18 00:09:58;;;;;;;4.30;3.15;;;15.20;61.70;;;;;;4989852;28;20125;-76
2024/01/18 00:12:23;;;;;;;3.22;2.92;;;15.20;61.70;;;;;;5020074;28;20037;-76
2024/01/18 00:14:49;;;;;;;3.38;3.15;;;15.20;61.70;;;;;;5007417;28;20038;-76
2024/01/18 00:17:14;;;;;;;2.90;2.70;;;15.20;61.70;;;;;;5022863;28;20515;-76
2024/01/18 00:19:40;;;;;;;2.97;2.78;;;15.20;61.70;;;;;;5008474;28;20115;-76
2024/01/18 00:22:05;;;;;;;3.33;3.13;;;15.10;61.70;;;;;;5023922;28;20034;-77
2024/01/18 00:24:31;;;;;;;2.90;2.70;;;15.10;61.70;;;;;;5006521;28;20495;-77
2024/01/18 00:26:57;;;;;;;2.83;2.63;;;15.10;61.80;;;;;;5006943;28;20041;-76
2024/01/18 00:29:22;;;;;;;2.60;2.40;;;15.10;61.80;;;;;;5007435;28;20061;-76
2024/01/18 00:31:48;;;;;;;2.55;2.38;;;15.10;61.90;;;;;;5019584;28;20042;-78
2024/01/18 00:34:13;;;;;;;2.70;2.50;;;15.10;61.90;;;;;;5034035;28;20054;-77
2024/01/18 00:36:39;;;;;;;2.90;2.70;;;15.10;61.90;;;;;;4988404;28;20315;-77
2024/01/18 00:39:10;;;;;;;2.72;2.53;;;15.10;61.90;;;;;;4996978;28;20523;-77
2024/01/18 00:41:39;;;;;;;2.33;2.22;;;15.10;62.00;;;;;;5019926;28;20065;-78
2024/01/18 00:44:04;;;;;;;2.72;2.53;;;15.10;61.90;;;;;;5022443;28;20518;-77
2024/01/18 00:46:30;;;;;;;2.63;2.42;;;15.10;62.00;;;;;;5019113;28;20499;-78
2024/01/18 00:48:55;;;;;;;2.40;2.30;;;15.00;61.90;;;;;;5005799;28;20041;-78
2024/01/18 00:51:21;;;;;;;2.72;2.53;;;15.00;62.00;;;;;;5017544;28;20126;-77
2024/01/18 00:53:47;;;;;;;2.80;2.60;;;15.00;61.90;;;;;;5003762;28;20037;-77
2024/01/18 00:56:12;;;;;;;2.10;2.00;;;15.00;62.00;;;;;;5006609;28;20246;-78
2024/01/18 00:58:39;;;;;;;2.42;2.22;;;15.00;62.00;;;;;;5015058;28;20049;-77
2024/01/18 01:01:05;;;;;;;2.40;2.30;;;15.00;62.80;;;;;;4998904;28;20116;-78
2024/01/18 01:03:31;;;;;;;2.50;2.30;;;15.00;62.10;;;;;;5021568;28;20068;-77
2024/01/18 01:05:56;;;;;;;2.33;2.22;;;15.00;62.10;;;;;;5020929;28;20174;-78
2024/01/18 01:08:22;;;;;;;2.38;2.17;;;15.00;62.10;;;;;;5019634;28;20342;-78
2024/01/18 01:10:47;;;;;;;2.25;2.13;;;14.90;62.80;;;;;;5019298;28;20128;-78
2024/01/18 01:13:13;;;;;;;2.55;2.33;;;14.90;62.20;;;;;;5018175;28;20088;-78
2024/01/18 01:15:38;;;;;;;2.50;2.30;;;14.90;62.20;;;;;;5017131;28;20561;-78
2024/01/18 01:18:04;;;;;;;2.13;2.03;;;14.90;62.20;;;;;;5019999;28;20056;-78
2024/01/18 01:20:30;;;;;;;2.20;2.10;;;14.90;62.20;;;;;;5004973;28;20053;-78
2024/01/18 01:22:56;;;;;;;2.15;2.05;;;14.90;62.20;;;;;;5005979;28;20045;-78
2024/01/18 01:25:22;;;;;;;2.20;2.00;;;14.90;62.30;;;;;;4995649;28;20060;-78
2024/01/18 01:27:48;;;;;;;1.90;1.80;;;14.90;62.20;;;;;;5017825;28;20502;-77
2024/01/18 01:30:14;;;;;;;2.60;2.40;;;14.90;63.00;;;;;;4995785;28;20064;-78
2024/01/18 01:32:40;;;;;;;2.00;1.90;;;14.90;62.20;;;;;;5017245;28;20025;-77
2024/01/18 01:35:05;;;;;;;1.70;1.60;;;14.80;62.30;;;;;;5022767;28;20038;-77
2024/01/18 01:37:31;;;;;;;1.80;1.70;;;14.80;62.30;;;;;;5021303;28;20132;-77
2024/01/18 01:39:57;;;;;;;1.70;1.60;;;14.80;62.40;;;;;;5021026;28;20049;-77
2024/01/18 01:42:22;;;;;;;2.10;2.00;;;14.80;62.40;;;;;;4995869;28;20049;-77
2024/01/18 01:44:49;;;;;;;2.08;1.98;;;14.80;62.40;;;;;;5017701;28;20038;-77
2024/01/18 01:47:15;;;;;;;2.67;2.08;;;14.80;62.30;;;;;;5016756;28;20580;-77
2024/01/18 01:49:40;;;;;;;2.00;1.90;;;14.80;62.40;;;;;;5022467;28;20033;-77
2024/01/18 01:52:06;;;;;;;1.92;1.83;;;14.80;62.40;;;;;;5009471;28;20049;-77
2024/01/18 01:54:32;;;;;;;1.67;1.58;;;14.80;62.50;;;;;;5001842;28;20057;-78
2024/01/18 01:56:57;;;;;;;1.90;1.80;;;14.80;62.50;;;;;;5002845;28;20041;-77
2024/01/18 01:59:23;;;;;;;1.80;1.70;;;14.80;62.50;;;;;;5005391;28;20060;-75
2024/01/18 02:01:48;;;;;;;1.77;1.67;;;14.80;62.50;;;;;;5024888;28;20041;-75
2024/01/18 02:04:14;;;;;;;2.25;2.08;;;14.80;62.50;;;;;;4996925;28;20030;-77
2024/01/18 02:06:40;;;;;;;1.92;1.83;;;14.80;62.50;;;;;;4988393;28;20057;-77
2024/01/18 02:09:05;;;;;;;1.70;1.60;;;14.70;62.50;;;;;;5016042;28;20061;-77
2024/01/18 02:11:31;;;;;;;2.00;1.90;;;14.70;62.40;;;;;;4997843;28;20057;-77
2024/01/18 02:13:57;;;;;;;1.80;1.70;;;14.80;61.80;;;;;;5005571;28;20113;-77
2024/01/18 02:16:23;;;;;;;1.70;1.60;;;14.80;61.70;;;;;;5005250;28;20128;-77
2024/01/18 02:18:49;;;;;;;1.70;1.60;;;14.80;61.50;;;;;;4982614;28;20042;-77
2024/01/18 02:21:14;;;;;;;1.88;1.77;;;14.80;62.20;;;;;;4981795;28;20507;-77
2024/01/18 02:23:45;;;;;;;1.80;1.70;;;14.70;62.30;;;;;;4986596;28;20180;-77
2024/01/18 02:26:10;;;;;;;1.52;1.42;;;14.70;62.20;;;;;;5019346;28;20521;-77
2024/01/18 02:28:36;;;;;;;1.65;1.55;;;14.70;61.80;;;;;;5010709;28;20594;-77
2024/01/18 02:31:01;;;;;;;1.33;1.23;;;14.70;62.40;;;;;;5023400;28;20056;-77
2024/01/18 02:33:27;;;;;;;1.63;1.52;;;14.70;61.90;;;;;;4994394;28;20072;-78
2024/01/18 02:35:52;;;;;;;1.67;1.58;;;14.70;61.90;;;;;;5023330;28;20034;-78
2024/01/18 02:38:18;;;;;;;1.85;1.75;;;14.70;62.50;;;;;;5020832;28;20128;-78
2024/01/18 02:40:43;;;;;;;1.70;1.60;;;14.70;62.40;;;;;;5022186;28;20098;-77
2024/01/18 02:43:09;;;;;;;1.60;1.50;;;14.70;62.30;;;;;;5019368;28;20163;-78
2024/01/18 02:45:36;;;;;;;1.27;1.13;;;14.70;62.20;;;;;;5036790;28;20125;-78
2024/01/18 02:48:01;;;;;;;1.33;1.23;;;14.70;62.40;;;;;;4998161;28;20140;-77
2024/01/18 02:50:27;;;;;;;2.55;1.30;;;14.70;62.10;;;;;;5009202;28;20152;-77
2024/01/18 02:52:52;;;;;;;5.47;1.50;;;14.70;62.20;;;;;;5010283;28;20537;-77
2024/01/18 02:55:18;;;;;;;1.70;1.60;;;14.60;61.90;;;;;;5014100;28;20507;-77
2024/01/18 02:57:44;;;;;;;1.70;1.60;;;14.60;62.30;;;;;;4992951;28;20555;-77
2024/01/18 03:00:11;;;;;;;1.48;1.38;;;14.60;62.40;;;;;;5021156;28;20064;-77
2024/01/18 03:02:37;;;;;;;1.65;1.55;;;14.60;62.60;;;;;;5026275;28;20049;-77
2024/01/18 03:05:02;;;;;;;1.70;1.38;;;14.60;62.30;;;;;;5025953;28;20052;-77
2024/01/18 03:07:28;;;;;;;1.25;1.15;;;14.60;62.30;;;;;;5009424;28;20744;-77
2024/01/18 03:09:54;;;;;;;1.33;1.23;;;14.60;62.40;;;;;;5019121;28;20073;-77
2024/01/18 03:12:20;;;;;;;1.58;1.35;;;14.60;62.20;;;;;;4990344;28;20511;-77
2024/01/18 03:14:45;;;;;;;2.78;1.38;;;14.60;62.30;;;;;;5010014;28;20499;-77
2024/01/18 03:17:11;;;;;;;1.60;1.50;;;14.60;62.60;;;;;;5025788;28;20454;-77
2024/01/18 03:19:36;;;;;;;1.17;1.15;;;14.60;62.00;;;;;;5020181;28;20029;-77
2024/01/18 03:22:02;;;;;;;1.38;1.08;;;14.60;62.60;;;;;;5021056;28;20499;-77
2024/01/18 03:24:28;;;;;;;1.30;1.20;;;14.50;62.10;;;;;;5020723;28;20048;-78
2024/01/18 03:26:54;;;;;;;2.45;1.20;;;14.50;62.40;;;;;;5022919;28;20061;-77
2024/01/18 03:29:19;;;;;;;1.48;1.27;;;14.50;62.20;;;;;;5022400;28;20116;-77
2024/01/18 03:31:45;;;;;;;1.30;1.20;;;14.50;62.60;;;;;;5024974;28;20533;-78
2024/01/18 03:34:10;;;;;;;1.42;1.30;;;14.50;62.00;;;;;;5019639;28;20064;-77
2024/01/18 03:36:36;;;;;;;1.05;1.05;;;14.50;62.20;;;;;;5011874;28;22114;-77
2024/01/18 03:39:01;;;;;;;1.40;1.30;;;14.50;62.30;;;;;;5021112;28;20144;-78
2024/01/18 03:41:27;;;;;;;1.13;1.02;;;14.50;62.50;;;;;;5004908;28;20585;-78
2024/01/18 03:43:52;;;;;;;1.85;1.00;;;14.50;61.90;;;;;;5014670;28;20506;-77
2024/01/18 03:46:19;;;;;;;1.30;1.20;;;14.50;62.10;;;;;;5004239;28;20519;-77
2024/01/18 03:48:44;;;;;;;1.45;1.20;;;14.50;61.80;;;;;;4993019;28;20034;-78
2024/01/18 03:51:10;;;;;;;0.98;0.93;;;14.50;62.40;;;;;;5017755;28;20103;-78
2024/01/18 03:53:36;;;;;;;1.30;1.20;;;14.50;62.40;;;;;;4985720;28;20050;-77
2024/01/18 03:56:02;;;;;;;1.40;1.30;;;14.50;61.90;;;;;;5057245;28;20033;-78
2024/01/18 03:58:27;;;;;;;1.08;1.08;;;14.50;61.80;;;;;;4993512;28;20050;-78
2024/01/18 04:00:53;;;;;;;0.93;0.93;;;14.50;61.90;;;;;;5019378;28;20043;-78
2024/01/18 04:03:20;;;;;;;1.35;1.25;;;14.50;62.20;;;;;;5020240;28;20627;-78
2024/01/18 04:05:45;;;;;;;1.45;1.30;;;14.40;62.20;;;;;;5002402;28;20113;-78
2024/01/18 04:08:11;;;;;;;1.00;0.82;;;14.50;61.90;;;;;;5022187;28;20033;-78
2024/01/18 04:10:37;;;;;;;1.10;1.10;;;14.50;62.70;;;;;;5007702;28;20132;-78
2024/01/18 04:13:02;;;;;;;0.88;0.88;;;14.40;62.50;;;;;;5006164;28;20037;-78
2024/01/18 04:15:28;;;;;;;1.10;1.00;;;14.40;62.10;;;;;;5019276;28;20042;-79
2024/01/18 04:17:54;;;;;;;2.40;1.55;;;14.40;62.00;;;;;;5022855;28;20033;-79
2024/01/18 04:20:23;;;;;;;1.00;1.00;;;14.40;61.90;;;;;;4997315;28;20037;-78
2024/01/18 04:22:48;;;;;;;0.95;0.93;;;14.40;61.90;;;;;;4996569;28;20131;-78
2024/01/18 04:25:14;;;;;;;1.05;0.95;;;14.40;61.80;;;;;;4989154;28;20522;-78
2024/01/18 04:27:39;;;;;;;1.63;1.35;;;14.40;61.80;;;;;;5020473;28;20376;-78
2024/01/18 04:30:05;;;;;;;1.40;1.30;;;14.40;61.70;;;;;;5023030;28;20115;-77
2024/01/18 04:32:31;;;;;;;1.17;1.08;;;14.40;61.90;;;;;;4998896;28;20042;-77
2024/01/18 04:34:56;;;;;;;0.80;0.80;;;14.40;62.00;;;;;;5022671;28;20403;-77
2024/01/18 04:37:22;;;;;;;0.80;0.80;;;14.40;61.90;;;;;;5006367;28;20184;-77
2024/01/18 04:39:47;;;;;;;0.70;0.70;;;14.40;61.90;;;;;;5007440;28;20111;-76
2024/01/18 04:42:14;;;;;;;1.10;1.10;;;14.40;61.80;;;;;;4989270;28;20446;-77
2024/01/18 04:44:41;;;;;;;0.80;0.80;;;14.40;61.80;;;;;;5008205;28;20038;-77
2024/01/18 04:47:06;;;;;;;1.30;1.20;;;14.40;61.90;;;;;;5012355;28;20065;-76
2024/01/18 04:49:32;;;;;;;1.30;1.20;;;14.40;61.90;;;;;;5019896;28;20582;-77
2024/01/18 04:51:59;;;;;;;0.70;0.70;;;14.40;61.80;;;;;;4997490;28;20061;-77
2024/01/18 04:54:24;;;;;;;1.20;1.20;;;14.40;61.80;;;;;;5004290;28;20460;-76
2024/01/18 04:56:50;;;;;;;0.85;0.85;;;14.40;61.90;;;;;;5005844;28;20507;-76
2024/01/18 04:59:17;;;;;;;0.88;0.88;;;14.40;61.80;;;;;;5018494;28;20550;-77
2024/01/18 05:01:43;;;;;;;0.80;0.80;;;14.30;61.70;;;;;;5009022;28;20483;-77
2024/01/18 05:04:09;;;;;;;0.90;0.90;;;14.40;61.70;;;;;;4990211;28;20033;-77
2024/01/18 05:06:34;;;;;;;0.80;0.80;;;14.30;61.70;;;;;;5010168;28;20053;-77
2024/01/18 05:09:00;;;;;;;0.80;0.80;;;14.30;62.40;;;;;;4989935;28;20578;-78
2024/01/18 05:11:26;;;;;;;0.85;0.85;;;14.30;61.70;;;;;;4996804;28;20038;-78
2024/01/18 05:13:51;;;;;;;0.93;0.93;;;14.30;61.70;;;;;;5008120;28;20109;-78
2024/01/18 05:16:18;;;;;;;0.77;0.77;;;14.30;61.60;;;;;;5006991;28;20120;-78
2024/01/18 05:18:43;;;;;;;1.10;1.00;;;14.30;61.60;;;;;;4975868;28;20045;-78
2024/01/18 05:21:09;;;;;;;2.10;0.75;;;14.30;61.70;;;;;;5009831;28;20053;-78
2024/01/18 05:23:36;;;;;;;0.77;0.77;;;14.30;61.70;;;;;;5020935;28;20140;-78
2024/01/18 05:26:02;;;;;;;0.68;0.68;;;14.30;61.70;;;;;;5021924;28;20048;-78
2024/01/18 05:28:28;;;;;;;0.75;0.75;;;14.30;61.70;;;;;;5003854;28;20054;-78
2024/01/18 05:30:53;;;;;;;0.90;0.90;;;14.30;61.70;;;;;;4994733;28;20053;-78
2024/01/18 05:33:19;;;;;;;0.73;0.73;;;14.30;61.70;;;;;;4971404;28;20056;-78
2024/01/18 05:35:45;;;;;;;0.85;0.80;;;14.30;61.70;;;;;;4981802;28;20147;-78
2024/01/18 05:38:10;;;;;;;0.98;0.70;;;14.30;61.80;;;;;;4998450;28;20073;-78
2024/01/18 05:40:36;;;;;;;0.82;0.82;;;14.30;61.70;;;;;;5014902;28;20065;-78
2024/01/18 05:43:01;;;;;;;0.73;0.73;;;14.30;61.80;;;;;;4994354;28;20127;-78
2024/01/18 05:45:27;;;;;;;0.63;0.63;;;14.20;61.70;;;;;;4982617;28;20407;-78
2024/01/18 05:47:52;;;;;;;0.82;0.82;;;14.20;61.70;;;;;;4997901;28;20045;-78
2024/01/18 05:50:18;;;;;;;0.80;0.80;;;14.20;61.70;;;;;;5002727;28;20045;-78
2024/01/18 05:52:44;;;;;;;0.70;0.70;;;14.20;62.40;;;;;;5038733;28;20173;-78
2024/01/18 05:55:10;;;;;;;0.90;0.90;;;14.30;61.60;;;;;;5003172;28;20037;-77
2024/01/18 05:57:38;;;;;;;0.80;0.80;;;14.20;61.70;;;;;;4997355;28;20042;-77
2024/01/18 06:00:05;;;;;;;0.68;0.68;;;14.20;61.70;;;;;;4992356;28;20125;-77
2024/01/18 06:02:31;;;;;;;0.80;0.80;;;14.20;61.70;;;;;;5013817;28;20060;-78
2024/01/18 06:04:57;;;;;;;0.60;0.60;;;14.20;61.80;;;;;;5022121;28;20038;-78
2024/01/18 06:07:24;;;;;;;0.90;0.90;;;14.20;61.80;;;;;;5024726;28;20408;-77
2024/01/18 06:09:49;;;;;;;0.60;0.60;;;14.20;61.70;;;;;;5022451;28;20103;-77
2024/01/18 06:12:15;;;;;;;0.70;0.70;;;14.20;61.70;;;;;;5024884;28;20434;-78
2024/01/18 06:14:41;;;;;;;0.80;0.75;;;14.20;61.70;;;;;;5021717;28;20512;-78
2024/01/18 06:17:07;;;;;;;0.63;0.63;;;14.20;61.70;;;;;;5023945;28;20045;-77
2024/01/18 06:19:32;;;;;;;0.60;0.60;;;14.20;61.70;;;;;;5023594;28;20045;-77
2024/01/18 06:21:58;;;;;;;0.60;0.60;;;14.20;61.70;;;;;;5025069;28;20486;-76
2024/01/18 06:24:25;;;;;;;0.50;0.50;;;14.20;61.70;;;;;;5025054;28;20061;-76
2024/01/18 06:26:51;;;;;;;0.60;0.60;;;14.20;61.70;;;;;;5021007;28;20116;-77
2024/01/18 06:29:16;;;;;;;0.55;0.55;;;14.20;61.80;;;;;;4997824;28;20448;-79
2024/01/18 06:31:42;;;;;;;0.52;0.52;;;14.20;61.70;;;;;;5004574;28;20053;-77
2024/01/18 06:34:08;;;;;;;0.55;0.55;;;14.20;61.60;;;;;;5022166;28;20030;-77
2024/01/18 06:36:34;;;;;;;0.70;0.70;;;14.30;61.70;;;;;;4985215;28;20153;-78
2024/01/18 06:38:59;;;;;;;4.35;0.93;;;14.20;61.80;;;;;;5024449;28;20037;-78
2024/01/18 06:41:26;;;;;;;2.05;0.65;;;14.20;62.00;;;;;;5023606;28;20041;-76
2024/01/18 06:43:51;;;;;;;5.25;0.90;;;14.20;62.30;;;;;;5039822;28;20149;-78
2024/01/18 06:46:17;;;;;;;15.88;1.67;;;14.30;62.30;;;;;;4669081;28;10000411;-78
2024/01/18 06:48:44;;;;;;;17.40;2.05;;;14.30;62.30;;;;;;5019451;28;20041;-78
2024/01/18 06:51:14;;;;;;;14.10;1.27;;;14.20;62.10;;;;;;5001467;28;20485;-78
2024/01/18 06:53:39;;;;;;;12.20;1.20;;;14.20;62.10;;;;;;4999159;28;20044;-78
2024/01/18 06:56:10;;;;;;;5.28;1.00;;;14.20;62.10;;;;;;5011811;28;20041;-78
2024/01/18 06:58:36;;;;;;;5.18;0.70;;;14.20;62.20;;;;;;4996642;28;20642;-78
2024/01/18 07:01:01;;;;;;;2.63;1.13;;;14.20;62.20;;;;;;5017504;28;20491;-79
2024/01/18 07:03:30;;;;;;;6.18;1.08;;;14.20;62.50;;;;;;5003796;28;20470;-79
2024/01/18 07:05:56;;;;;;;2.70;1.00;;;14.20;62.40;;;;;;5004253;28;20052;-79
2024/01/18 07:08:22;;;;;;;1.27;1.00;;;14.20;62.40;;;;;;5004018;28;20033;-78
2024/01/18 07:10:48;;;;;;;1.02;1.00;;;14.20;62.40;;;;;;5022001;28;20518;-79
2024/01/18 07:13:14;;;;;;;2.05;1.00;;;14.20;62.50;;;;;;5020056;28;20034;-78
2024/01/18 07:15:40;;;;;;;1.10;0.70;;;14.20;62.50;;;;;;5005682;28;20055;-78
2024/01/18 07:18:05;;;;;;;1.85;0.95;;;14.20;62.50;;;;;;5003499;28;20034;-78
2024/01/18 07:20:31;;;;;;;5.25;0.88;;;14.20;62.50;;;;;;5011773;28;20050;-78
2024/01/18 07:22:56;;;;;;;1.25;0.85;;;14.20;62.50;;;;;;4999290;28;20132;-78
2024/01/18 07:25:22;;;;;;;2.75;0.75;;;14.20;62.50;;;;;;5030975;28;20464;-78
2024/01/18 07:27:48;;;;;;;1.35;0.70;;;14.20;62.40;;;;;;4982917;28;20046;-77
2024/01/18 07:30:14;;;;;;;0.68;0.60;;;14.20;62.30;;;;;;4998967;28;20064;-79
2024/01/18 07:32:40;;;;;;;1.10;0.60;;;14.20;62.40;;;;;;5018042;28;20586;-79
2024/01/18 07:35:06;;;;;;;1.17;0.77;;;14.20;62.50;;;;;;5022302;28;20042;-79
2024/01/18 07:37:31;;;;;;;0.55;0.50;;;14.20;62.30;;;;;;5003121;28;20103;-79
2024/01/18 07:39:57;;;;;;;2.33;0.60;;;14.20;62.50;;;;;;5002100;28;20044;-79
2024/01/18 07:42:22;;;;;;;1.15;0.40;;;14.20;62.30;;;;;;5019105;28;20041;-78
2024/01/18 07:44:48;;;;;;;1.33;0.63;;;14.20;62.20;;;;;;5002642;28;20037;-79
2024/01/18 07:47:14;;;;;;;1.88;0.50;;;14.30;62.30;;;;;;5023764;28;20045;-78
2024/01/18 07:49:45;;;;;;;1.40;0.70;;;14.30;62.90;;;;;;5007026;28;20061;-78
2024/01/18 07:52:14;;;;;;;2.47;0.73;;;14.20;61.30;;;;;;5020847;28;20100;-78
2024/01/18 07:54:40;;;;;;;3.15;0.70;;;14.20;62.50;;;;;;5023099;28;20121;-78
2024/01/18 07:57:05;;;;;;;1.08;0.55;;;14.10;62.50;;;;;;5023765;28;20175;-78
2024/01/18 07:59:31;;;;;;;2.67;0.60;;;14.10;62.50;;;;;;5022413;28;20049;-78
2024/01/18 08:01:57;;;;;;;0.60;0.60;;;14.10;62.50;;;;;;5023561;28;20053;-78
2024/01/18 08:04:22;;;;;;;0.63;0.60;;;14.10;62.40;;;;;;5006953;28;20514;-78
2024/01/18 08:06:48;;;;;;;0.93;0.82;;;14.10;62.30;;;;;;5003515;28;20415;-78
2024/01/18 08:09:15;;;;;;;0.43;0.43;;;14.10;62.30;;;;;;5013239;28;20072;-78
2024/01/18 08:11:40;;;;;;;1.40;0.93;;;14.10;62.30;;;;;;5020882;28;20531;-77
2024/01/18 08:14:06;;;;;;;0.80;0.80;;;14.10;62.40;;;;;;4994312;28;20052;-78
2024/01/18 08:16:32;;;;;;;2.45;0.60;;;14.10;62.40;;;;;;5034632;28;20049;-78
2024/01/18 08:18:58;;;;;;;0.75;0.70;;;14.10;62.40;;;;;;5022007;28;20125;-78
2024/01/18 08:21:23;;;;;;;2.00;0.60;;;14.10;62.50;;;;;;5006961;28;20042;-78
2024/01/18 08:23:49;;;;;;;1.05;0.75;;;14.10;62.50;;;;;;5003583;28;20157;-78
2024/01/18 08:26:15;;;;;;;0.93;0.60;;;14.10;62.50;;;;;;5005489;28;20037;-78
2024/01/18 08:28:40;;;;;;;2.05;0.70;;;14.10;62.60;;;;;;5022542;28;20049;-78
2024/01/18 08:31:06;;;;;;;1.48;0.60;;;14.10;62.60;;;;;;5005462;28;20046;-78
2024/01/18 08:33:32;;;;;;;0.60;0.50;;;14.10;63.40;;;;;;5022107;28;20060;-78
2024/01/18 08:35:58;;;;;;;2.00;0.50;;;14.10;62.60;;;;;;5008655;28;20034;-78
2024/01/18 08:38:23;;;;;;;0.60;0.60;;;14.10;62.70;;;;;;5039664;28;20053;-78
2024/01/18 08:40:49;;;;;;;1.10;0.63;;;14.10;62.80;;;;;;5022850;28;20461;-78
2024/01/18 08:43:15;;;;;;;1.25;0.60;;;14.10;62.90;;;;;;4999433;28;20072;-78
2024/01/18 08:45:41;;;;;;;2.55;0.50;;;14.00;62.80;;;;;;5006584;28;20095;-78
2024/01/18 08:48:07;;;;;;;0.85;0.70;;;14.00;63.00;;;;;;5025049;28;20064;-78
2024/01/18 08:50:33;;;;;;;3.10;0.60;;;14.10;63.10;;;;;;5021856;28;20038;-78
2024/01/18 08:52:58;;;;;;;0.50;0.50;;;14.10;63.20;;;;;;5026072;28;20046;-78
2024/01/18 08:55:24;;;;;;;1.35;0.68;;;14.10;63.20;;;;;;4989950;28;20049;-78
2024/01/18 08:57:49;;;;;;;0.50;0.50;;;14.10;63.30;;;;;;5020457;28;20026;-78
2024/01/18 09:00:17;;;;;;;1.45;0.50;;;14.10;63.40;;;;;;5003661;28;20042;-78
2024/01/18 09:02:46;;;;;;;0.65;0.52;;;14.10;63.20;;;;;;5020645;28;20284;-78
2024/01/18 09:05:11;;;;;;;0.82;0.57;;;14.00;63.30;;;;;;4991574;28;20120;-78
2024/01/18 09:07:37;;;;;;;0.60;0.60;;;14.00;63.30;;;;;;5029217;28;20579;-78
2024/01/18 09:10:04;;;;;;;0.43;0.43;;;14.00;63.30;;;;;;5007536;28;20052;-78
2024/01/18 09:12:29;;;;;;;0.68;0.68;;;14.00;63.30;;;;;;5018952;28;20160;-77
2024/01/18 09:14:56;;;;;;;0.40;0.40;;;14.00;63.40;;;;;;5007332;28;20519;-78
2024/01/18 09:17:21;;;;;;;1.33;0.57;;;14.00;63.50;;;;;;5005783;28;20038;-78
2024/01/18 09:19:48;;;;;;;0.50;0.50;;;14.00;63.60;;;;;;5024788;28;20037;-78
2024/01/18 09:22:14;;;;;;;0.75;0.40;;;14.00;63.40;;;;;;5038046;28;20033;-78
2024/01/18 09:24:42;;;;;;;1.13;0.47;;;14.00;63.40;;;;;;5021309;28;20124;-78
2024/01/18 09:27:11;;;;;;;0.43;0.40;;;14.00;63.40;;;;;;5004356;28;20280;-78
2024/01/18 09:29:37;;;;;;;1.67;0.40;;;14.00;63.50;;;;;;5019529;28;20029;-78
2024/01/18 09:32:08;;;;;;;0.60;0.57;;;14.00;63.30;;;;;;5021464;28;20048;-78
2024/01/18 09:34:34;;;;;;;0.50;0.50;;;14.00;63.50;;;;;;5018577;28;20399;-78
2024/01/18 09:36:59;;;;;;;0.38;0.38;;;14.00;63.30;;;;;;5006007;28;20045;-78
2024/01/18 09:39:25;;;;;;;0.60;0.60;;;14.00;63.40;;;;;;5023013;28;20041;-78
2024/01/18 09:41:52;;;;;;;0.40;0.40;;;14.00;63.30;;;;;;4990875;28;20037;-78
2024/01/18 09:44:31;;;;;;;0.65;0.60;;;14.00;63.30;;;;;;5023004;28;20060;-78
2024/01/18 09:46:57;;;;;;;0.75;0.50;;;14.00;63.30;;;;;;5021917;28;20500;-78
2024/01/18 09:49:26;;;;;;;0.85;0.40;;;14.00;64.10;;;;;;5021511;28;20075;-78
2024/01/18 09:51:52;;;;;;;0.82;0.65;;;14.00;63.30;;;;;;5023093;28;20045;-78
2024/01/18 09:54:17;;;;;;;0.40;0.40;;;14.00;63.30;;;;;;5021068;28;20399;-78
2024/01/18 09:56:45;;;;;;;0.82;0.40;;;14.00;63.30;;;;;;4996972;28;20066;-78
2024/01/18 09:59:12;;;;;;;0.50;0.47;;;14.00;63.30;;;;;;5007714;28;20048;-78
2024/01/18 10:01:37;;;;;;;0.40;0.40;;;14.00;63.40;;;;;;5007626;28;20507;-78
2024/01/18 10:04:03;;;;;;;0.40;0.40;;;14.00;63.30;;;;;;4990058;28;20049;-78
2024/01/18 10:06:29;;;;;;;0.40;0.40;;;14.00;63.30;;;;;;4998930;28;20044;-78
2024/01/18 10:08:54;;;;;;;0.40;0.40;;;13.90;63.20;;;;;;4986532;28;20042;-78
2024/01/18 10:11:20;;;;;;;0.65;0.20;;;14.00;63.40;;;;;;5007358;28;20061;-78
2024/01/18 10:13:55;;;;;;;0.40;0.40;;;14.00;63.30;;;;;;5006203;28;20038;-78
2024/01/18 10:16:32;;;;;;;0.40;0.40;;;14.00;64.20;;;;;;5020101;28;20132;-78
2024/01/18 10:19:01;;;;;;;0.90;0.38;;;14.00;63.40;;;;;;5014639;28;20061;-77
2024/01/18 10:21:27;;;;;;;0.43;0.40;;;14.00;63.30;;;;;;5019696;28;20042;-78
2024/01/18 10:23:53;;;;;;;0.70;0.30;;;14.00;63.40;;;;;;5023163;28;20040;-78
2024/01/18 10:26:20;;;;;;;0.50;0.50;;;14.00;63.60;;;;;;5038264;28;20504;-78
2024/01/18 10:28:45;;;;;;;0.47;0.47;;;14.00;63.30;;;;;;4983678;28;20053;-78
2024/01/18 10:31:11;;;;;;;0.70;0.40;;;14.00;63.40;;;;;;4992024;28;20060;-78
2024/01/18 10:33:36;;;;;;;1.08;0.30;;;14.00;63.40;;;;;;5019676;28;20076;-78
2024/01/18 10:36:02;;;;;;;0.30;0.20;;;14.00;64.20;;;;;;5000376;28;20056;-78
2024/01/18 10:38:29;;;;;;;1.10;0.40;;;14.00;63.50;;;;;;5020400;28;20659;-78
2024/01/18 10:40:55;;;;;;;0.40;0.40;;;14.00;63.60;;;;;;5021751;28;20129;-78
2024/01/18 10:43:20;;;;;;;0.68;0.40;;;14.00;63.40;;;;;;5005417;28;20137;-78
2024/01/18 10:45:46;;;;;;;0.65;0.40;;;14.00;63.50;;;;;;5037244;28;20084;-78
2024/01/18 10:48:11;;;;;;;0.35;0.35;;;14.00;63.80;;;;;;5025842;28;20577;-78
2024/01/18 10:50:37;;;;;;;0.30;0.30;;;14.00;63.60;;;;;;5024913;28;20037;-78
2024/01/18 10:53:02;;;;;;;0.30;0.30;;;14.00;63.70;;;;;;5027990;28;20041;-78
2024/01/18 10:55:28;;;;;;;0.30;0.30;;;14.00;63.90;;;;;;5021826;28;20042;-77
2024/01/18 10:57:53;;;;;;;0.30;0.30;;;14.00;63.90;;;;;;5023969;28;20041;-78
2024/01/18 11:00:19;;;;;;;0.43;0.30;;;14.00;63.80;;;;;;5025653;28;20285;-78
2024/01/18 11:02:45;;;;;;;0.57;0.30;;;14.00;63.80;;;;;;5025285;28;20137;-78
2024/01/18 11:05:18;;;;;;;0.35;0.35;;;14.00;63.80;;;;;;5027216;28;20124;-78
2024/01/18 11:07:44;;;;;;;1.40;0.30;;;14.00;64.00;;;;;;5003798;28;20037;-78
2024/01/18 11:10:13;;;;;;;2.20;0.30;;;14.00;63.80;;;;;;5021549;28;20475;-78
2024/01/18 11:12:43;;;;;;;0.88;0.30;;;14.00;63.90;;;;;;4988896;28;20046;-78
2024/01/18 11:15:12;;;;;;;0.28;0.25;;;14.00;63.90;;;;;;5006091;28;20048;-77
2024/01/18 11:17:47;;;;;;;0.30;0.30;;;14.00;63.80;;;;;;5011095;28;20113;-77
2024/01/18 11:20:13;;;;;;;0.30;0.30;;;14.00;63.70;;;;;;5024623;28;20032;-78
2024/01/18 11:22:39;;;;;;;0.35;0.25;;;14.00;63.80;;;;;;5025665;28;20384;-77
2024/01/18 11:25:06;;;;;;;0.50;0.30;;;14.00;63.80;;;;;;5023103;28;20034;-78
2024/01/18 11:27:41;;;;;;;0.20;0.20;;;14.00;63.90;;;;;;4991114;28;20423;-78
2024/01/18 11:30:10;;;;;;;106.60;60.63;;;14.00;63.80;;;;;;5018096;28;20030;-78
2024/01/18 11:32:37;;;;;;;0.40;0.40;;;14.00;63.80;;;;;;5005889;28;20578;-78
2024/01/18 11:35:13;;;;;;;0.20;0.20;;;14.00;63.80;;;;;;5023238;28;20072;-80
2024/01/18 11:37:38;;;;;;;0.63;0.25;;;14.00;64.80;;;;;;5021446;28;20091;-77
2024/01/18 11:40:13;;;;;;;0.40;0.40;;;14.00;63.60;;;;;;5022651;28;20447;-79
2024/01/18 11:42:43;;;;;;;0.20;0.20;;;14.00;63.30;;;;;;5005178;28;20038;-80
2024/01/18 11:45:11;;;;;;;0.45;0.40;;;14.00;63.50;;;;;;5024368;28;20711;-79
2024/01/18 11:47:37;;;;;;;0.47;0.30;;;14.00;63.50;;;;;;5019685;28;20439;-80
2024/01/18 11:50:07;;;;;;;2.28;0.50;;;14.10;63.30;;;;;;5026457;28;20096;-79
2024/01/18 11:52:34;;;;;;;1.85;0.43;;;14.10;63.10;;;;;;5006362;28;20060;-80
2024/01/18 11:55:00;;;;;;;2.40;0.40;;;14.10;63.10;;;;;;5021413;28;20044;-81
2024/01/18 11:57:26;;;;;;;0.75;0.32;;;14.10;63.30;;;;;;5023630;28;20037;-81
2024/01/18 11:59:52;;;;;;;0.20;0.20;;;14.10;63.30;;;;;;5021812;28;20500;-81
2024/01/18 12:02:18;;;;;;;0.30;0.20;;;14.10;63.40;;;;;;5026363;28;20049;-82
2024/01/18 12:04:45;;;;;;;0.35;0.30;;;14.20;63.20;;;;;;5023334;28;20037;-79
2024/01/18 12:07:11;;;;;;;0.40;0.40;;;14.10;63.20;;;;;;5023017;28;20069;-80
2024/01/18 12:09:36;;;;;;;0.63;0.20;;;14.20;62.80;;;;;;4991144;28;20080;-79
2024/01/18 12:12:03;;;;;;;0.65;0.35;;;14.20;62.80;;;;;;4996167;28;20427;-79
2024/01/18 12:14:28;;;;;;;0.57;0.30;;;14.20;62.80;;;;;;5004424;28;20050;-79
2024/01/18 12:16:54;;;;;;;0.57;0.40;;;14.30;63.10;;;;;;5018854;28;20542;-80
2024/01/18 12:19:33;;;;;;;1.95;1.45;;;14.30;62.70;;;;;;4999556;28;20041;-80
2024/01/18 12:22:02;;;;;;;18.48;7.30;;;14.30;63.60;;;;;;4987576;28;20069;-79
2024/01/18 12:24:28;;;;;;;19.40;8.48;;;14.30;64.60;;;;;;4655652;28;10000186;-79
2024/01/18 12:26:54;;;;;;;8.75;6.70;;;14.40;64.20;;;;;;5009515;28;20045;-79
2024/01/18 12:29:20;;;;;;;5.43;4.93;;;14.40;63.70;;;;;;5017671;28;20098;-79
2024/01/18 12:31:46;;;;;;;4.40;4.00;;;14.40;63.40;;;;;;4997513;28;20102;-80
2024/01/18 12:34:12;;;;;;;4.15;3.22;;;14.40;63.10;;;;;;4979462;28;20073;-80
2024/01/18 12:36:38;;;;;;;3.75;3.30;;;14.50;63.20;;;;;;5012944;28;20068;-80
2024/01/18 12:39:04;;;;;;;4.32;3.45;;;14.50;63.20;;;;;;5037174;28;20118;-80